createdAt,value
2019-03-04T00:00:55.356Z,230
2019-03-04T00:01:18.342Z,230
2019-03-04T00:01:30.296Z,230
2019-03-04T00:05:55.383Z,230
2019-03-04T00:10:55.371Z,232
2019-03-04T00:15:55.360Z,232
2019-03-04T00:20:55.350Z,230
2019-03-04T00:25:55.370Z,232
2019-03-04T00:30:55.377Z,232
2019-03-04T00:35:30.275Z,234
2019-03-04T00:35:38.296Z,235
2019-03-04T00:35:55.337Z,235
2019-03-04T00:37:34.294Z,234
2019-03-04T00:37:38.277Z,234
2019-03-04T00:40:55.321Z,233
2019-03-04T00:45:55.296Z,233
2019-03-04T00:50:55.329Z,231
2019-03-04T00:55:55.296Z,232
2019-03-04T01:00:55.335Z,232
2019-03-04T01:05:55.342Z,233
2019-03-04T01:10:55.288Z,231
2019-03-04T01:15:55.272Z,232
2019-03-04T01:20:55.336Z,233
2019-03-04T01:21:33.217Z,232
2019-03-04T01:21:37.221Z,232
2019-03-04T01:25:55.284Z,234
2019-03-04T01:30:55.291Z,234
2019-03-04T01:31:09.236Z,233
2019-03-04T01:31:13.207Z,233
2019-03-04T01:35:55.300Z,234
2019-03-04T01:40:55.265Z,234
2019-03-04T01:45:55.270Z,233
2019-03-04T01:50:55.319Z,231
2019-03-04T01:55:55.265Z,232
2019-03-04T02:00:55.239Z,235
2019-03-04T02:05:55.269Z,235
2019-03-04T02:10:55.239Z,236
2019-03-04T02:11:09.213Z,236
2019-03-04T02:11:13.168Z,235
2019-03-04T02:11:33.170Z,236
2019-03-04T02:11:41.181Z,236
2019-03-04T02:15:09.172Z,236
2019-03-04T02:15:13.185Z,236
2019-03-04T02:15:55.240Z,236
2019-03-04T02:20:55.246Z,235
2019-03-04T02:25:55.255Z,234
2019-03-04T02:30:55.234Z,233
2019-03-04T02:35:55.238Z,234
2019-03-04T02:40:55.250Z,234
2019-03-04T02:43:37.176Z,233
2019-03-04T02:43:41.160Z,234
2019-03-04T02:45:55.179Z,235
2019-03-04T02:50:55.242Z,234
2019-03-04T02:52:45.146Z,235
2019-03-04T02:52:49.153Z,235
2019-03-04T02:55:57.705Z,236
2019-03-04T03:00:17.155Z,237
2019-03-04T03:00:21.148Z,236
2019-03-04T03:00:55.188Z,236
2019-03-04T03:02:21.156Z,236
2019-03-04T03:02:25.163Z,236
2019-03-04T03:05:55.216Z,235
2019-03-04T03:07:45.117Z,235
2019-03-04T03:07:49.124Z,235
2019-03-04T03:10:55.196Z,235
2019-03-04T03:15:55.239Z,236
2019-03-04T03:20:55.162Z,234
2019-03-04T03:25:55.220Z,235
2019-03-04T03:30:55.217Z,233
2019-03-04T03:35:55.153Z,233
2019-03-04T03:40:09.127Z,232
2019-03-04T03:40:17.098Z,233
2019-03-04T03:40:55.152Z,233
2019-03-04T03:44:05.147Z,233
2019-03-04T03:44:09.130Z,232
2019-03-04T03:45:55.136Z,232
2019-03-04T03:50:55.194Z,234
2019-03-04T03:51:52.125Z,235
2019-03-04T03:52:32.070Z,233
2019-03-04T03:55:55.148Z,234
2019-03-04T04:00:55.199Z,230
2019-03-04T04:05:55.158Z,229
2019-03-04T04:10:55.141Z,224
2019-03-04T04:15:55.147Z,228
2019-03-04T04:20:55.109Z,228
2019-03-04T04:21:40.097Z,229
2019-03-04T04:21:44.090Z,230
2019-03-04T04:25:55.137Z,226
2019-03-04T04:30:55.134Z,228
2019-03-04T04:35:55.110Z,230
2019-03-04T04:40:55.110Z,226
2019-03-04T04:45:55.094Z,223
2019-03-04T04:50:55.111Z,219
2019-03-04T04:55:55.075Z,224
2019-03-04T05:00:55.112Z,223
2019-03-04T05:05:55.127Z,221
2019-03-04T05:10:55.064Z,219
2019-03-04T05:15:55.057Z,219
2019-03-04T05:20:55.067Z,223
2019-03-04T05:25:55.070Z,224
2019-03-04T05:30:55.054Z,220
2019-03-04T05:35:55.042Z,222
2019-03-04T05:40:55.067Z,218
2019-03-04T05:45:55.048Z,220
2019-03-04T05:50:55.045Z,218
2019-03-04T05:55:55.073Z,218
2019-03-04T06:00:55.016Z,219
2019-03-04T06:05:55.040Z,222
2019-03-04T06:10:55.018Z,223
2019-03-04T06:14:23.980Z,221
2019-03-04T06:14:27.985Z,221
2019-03-04T06:15:55.027Z,218
2019-03-04T06:20:55.005Z,220
2019-03-04T06:25:55.048Z,220
2019-03-04T06:30:55.010Z,225
2019-03-04T06:35:55.022Z,222
2019-03-04T06:40:55.015Z,220
2019-03-04T06:45:42.926Z,223
2019-03-04T06:45:50.950Z,222
2019-03-04T06:45:54.970Z,221
2019-03-04T06:50:57.462Z,222
2019-03-04T06:55:58.155Z,224
2019-03-04T07:00:58.153Z,221
2019-03-04T07:05:58.118Z,221
2019-03-04T07:10:58.154Z,225
2019-03-04T07:15:58.125Z,226
2019-03-04T07:20:58.114Z,221
2019-03-04T07:25:58.166Z,223
2019-03-04T07:30:58.136Z,224
2019-03-04T07:35:58.151Z,221
2019-03-04T07:40:58.115Z,218
2019-03-04T07:45:58.092Z,220
2019-03-04T07:50:58.076Z,225
2019-03-04T07:55:58.082Z,222
2019-03-04T08:00:19.041Z,222
2019-03-04T08:00:23.043Z,225
2019-03-04T08:00:59.429Z,226
2019-03-04T08:05:58.104Z,224
2019-03-04T08:10:58.100Z,220
2019-03-04T08:15:58.076Z,223
2019-03-04T08:20:58.089Z,223
2019-03-04T08:25:58.080Z,221
2019-03-04T08:30:58.044Z,219
2019-03-04T08:35:58.036Z,224
2019-03-04T08:40:58.076Z,225
2019-03-04T08:45:58.079Z,217
2019-03-04T08:50:58.030Z,223
2019-03-04T08:55:59.365Z,219
2019-03-04T09:00:58.046Z,221
2019-03-04T09:05:58.055Z,221
2019-03-04T09:10:58.048Z,220
2019-03-04T09:15:58.026Z,219
2019-03-04T09:20:58.012Z,219
2019-03-04T09:25:58.055Z,222
2019-03-04T09:30:57.991Z,223
2019-03-04T09:35:58.025Z,225
2019-03-04T09:40:57.991Z,225
2019-03-04T09:45:58.001Z,226
2019-03-04T09:50:57.977Z,225
2019-03-04T09:55:58.015Z,225
2019-03-04T10:00:57.973Z,227
2019-03-04T10:05:57.974Z,224
2019-03-04T10:10:57.962Z,225
2019-03-04T10:15:58.013Z,228
2019-03-04T10:20:57.973Z,225
2019-03-04T10:25:57.975Z,229
2019-03-04T10:30:57.984Z,224
2019-03-04T10:35:57.997Z,226
2019-03-04T10:40:58.146Z,228
2019-03-04T10:41:33.890Z,230
2019-03-04T10:41:37.901Z,230
2019-03-04T10:45:57.981Z,225
2019-03-04T10:50:57.919Z,226
2019-03-04T10:55:57.944Z,226
2019-03-04T11:00:57.921Z,225
2019-03-04T11:05:57.918Z,227
2019-03-04T11:10:57.964Z,227
2019-03-04T11:15:57.925Z,228
2019-03-04T11:20:57.909Z,228
2019-03-04T11:25:57.914Z,231
2019-03-04T11:30:57.909Z,227
2019-03-04T11:35:57.893Z,227
2019-03-04T11:40:57.899Z,231
2019-03-04T11:45:57.919Z,230
2019-03-04T11:50:57.860Z,225
2019-03-04T11:55:57.878Z,226
2019-03-04T11:57:44.850Z,223
2019-03-04T11:57:48.795Z,224
2019-03-04T12:00:59.291Z,216
2019-03-04T12:05:57.892Z,220
2019-03-04T12:10:57.859Z,224
2019-03-04T12:15:24.856Z,225
2019-03-04T12:15:32.793Z,225
2019-03-04T12:15:57.857Z,226
2019-03-04T12:20:57.866Z,222
2019-03-04T12:25:57.844Z,227
2019-03-04T12:30:57.850Z,226
2019-03-04T12:35:57.829Z,230
2019-03-04T12:40:57.865Z,228
2019-03-04T12:45:57.872Z,226
2019-03-04T12:50:57.846Z,228
2019-03-04T12:55:00.767Z,228
2019-03-04T12:55:48.794Z,226
2019-03-04T12:55:57.820Z,226
2019-03-04T13:00:57.816Z,225
2019-03-04T13:05:57.820Z,223
2019-03-04T13:10:57.802Z,225
2019-03-04T13:15:57.814Z,225
2019-03-04T13:20:57.801Z,225
2019-03-04T13:25:57.832Z,226
2019-03-04T13:30:57.815Z,225
2019-03-04T13:35:57.807Z,226
2019-03-04T13:40:57.805Z,226
2019-03-04T13:45:57.797Z,229
2019-03-04T13:50:57.764Z,227
2019-03-04T13:55:57.792Z,224
2019-03-04T14:00:57.744Z,224
2019-03-04T14:05:57.789Z,222
2019-03-04T14:10:57.775Z,223
2019-03-04T14:15:57.770Z,224
2019-03-04T14:20:57.765Z,227
2019-03-04T14:25:57.749Z,225
2019-03-04T14:30:57.739Z,222
2019-03-04T14:35:57.729Z,225
2019-03-04T14:40:57.720Z,226
2019-03-04T14:45:57.746Z,231
2019-03-04T14:50:57.716Z,231
2019-03-04T14:55:57.733Z,228
2019-03-04T15:00:57.706Z,230
2019-03-04T15:06:06.465Z,230
2019-03-04T15:10:57.726Z,230
2019-03-04T15:16:01.281Z,228
2019-03-04T15:20:57.702Z,228
2019-03-04T15:25:57.706Z,231
2019-03-04T15:30:57.695Z,229
2019-03-04T15:35:57.685Z,223
2019-03-04T15:40:57.688Z,223
2019-03-04T15:45:57.670Z,228
2019-03-04T15:50:57.716Z,228
2019-03-04T15:55:57.688Z,226
2019-03-04T16:00:57.646Z,225
2019-03-04T16:05:57.663Z,225
2019-03-04T16:10:57.635Z,224
2019-03-04T16:15:57.625Z,224
2019-03-04T16:20:57.667Z,222
2019-03-04T16:25:57.621Z,222
2019-03-04T16:30:57.656Z,222
2019-03-04T16:35:57.632Z,223
2019-03-04T16:40:57.606Z,223
2019-03-04T16:45:57.631Z,224
2019-03-04T16:50:57.613Z,218
2019-03-04T16:55:57.637Z,218
2019-03-04T17:00:57.622Z,217
2019-03-04T17:05:57.607Z,218
2019-03-04T17:10:57.596Z,218
2019-03-04T17:15:57.597Z,220
2019-03-04T17:20:57.591Z,223
2019-03-04T17:25:57.590Z,220
2019-03-04T17:30:57.575Z,221
2019-03-04T17:35:57.572Z,220
2019-03-04T17:40:57.557Z,216
2019-03-04T17:45:57.809Z,215
2019-03-04T17:50:57.564Z,218
2019-03-04T17:55:57.540Z,217
2019-03-04T18:00:57.547Z,218
2019-03-04T18:05:57.558Z,220
2019-03-04T18:10:57.569Z,214
2019-03-04T18:15:57.535Z,218
2019-03-04T18:20:57.539Z,216
2019-03-04T18:25:57.530Z,219
2019-03-04T18:30:57.504Z,213
2019-03-04T18:35:57.503Z,220
2019-03-04T18:40:57.545Z,217
2019-03-04T18:45:57.515Z,219
2019-03-04T18:50:57.518Z,219
2019-03-04T18:55:57.479Z,220
2019-03-04T19:00:57.472Z,220
2019-03-04T19:05:59.540Z,221
2019-03-04T19:10:57.476Z,219
2019-03-04T19:15:57.482Z,218
2019-03-04T19:20:57.468Z,225
2019-03-04T19:25:57.468Z,224
2019-03-04T19:30:57.469Z,226
2019-03-04T19:35:57.465Z,223
2019-03-04T19:40:57.495Z,219
2019-03-04T19:45:57.466Z,223
2019-03-04T19:50:57.454Z,224
2019-03-04T19:55:57.462Z,225
2019-03-04T19:57:17.384Z,225
2019-03-04T19:57:57.358Z,225
2019-03-04T20:00:57.424Z,224
2019-03-04T20:05:57.422Z,225
2019-03-04T20:10:57.442Z,223
2019-03-04T20:15:57.425Z,225
2019-03-04T20:20:57.404Z,225
2019-03-04T20:25:57.419Z,224
2019-03-04T20:30:57.419Z,225
2019-03-04T20:35:57.382Z,224
2019-03-04T20:40:57.435Z,227
2019-03-04T20:45:57.415Z,226
2019-03-04T20:50:57.364Z,224
2019-03-04T20:55:57.429Z,226
2019-03-04T21:00:57.392Z,227
2019-03-04T21:05:57.409Z,228
2019-03-04T21:10:57.415Z,226
2019-03-04T21:15:57.351Z,226
2019-03-04T21:20:57.349Z,227
2019-03-04T21:25:57.353Z,220
2019-03-04T21:30:57.369Z,227
2019-03-04T21:35:57.363Z,225
2019-03-04T21:40:57.355Z,227
2019-03-04T21:41:00.586Z,227
2019-03-04T21:41:08.312Z,227
2019-03-04T21:45:57.330Z,227
2019-03-04T21:50:57.349Z,226
2019-03-04T21:51:12.275Z,225
2019-03-04T21:51:16.288Z,227
2019-03-04T21:55:57.313Z,230
2019-03-04T22:00:57.375Z,229
2019-03-04T22:05:57.372Z,229
2019-03-04T22:07:44.266Z,230
2019-03-04T22:07:52.286Z,230
2019-03-04T22:10:57.293Z,230
2019-03-04T22:15:57.324Z,227
2019-03-04T22:20:57.300Z,230
2019-03-04T22:26:01.715Z,231
2019-03-04T22:30:57.278Z,233
2019-03-04T22:32:44.271Z,233
2019-03-04T22:32:52.222Z,233
2019-03-04T22:35:57.331Z,233
2019-03-04T22:40:57.330Z,232
2019-03-04T22:45:57.275Z,230
2019-03-04T22:50:57.302Z,231
2019-03-04T22:55:57.250Z,232
2019-03-04T23:00:57.256Z,233
2019-03-04T23:01:56.201Z,234
2019-03-04T23:02:08.228Z,233
2019-03-04T23:04:52.209Z,233
2019-03-04T23:04:56.203Z,232
2019-03-04T23:05:57.282Z,232
2019-03-04T23:10:57.270Z,233
2019-03-04T23:12:44.184Z,232
2019-03-04T23:13:00.187Z,232
2019-03-04T23:15:57.248Z,232
2019-03-04T23:20:57.299Z,231
2019-03-04T23:25:57.267Z,228
2019-03-04T23:28:32.208Z,227
2019-03-04T23:28:36.167Z,228
2019-03-04T23:30:59.705Z,230
2019-03-04T23:35:57.220Z,230
2019-03-04T23:39:55.209Z,231
2019-03-04T23:40:07.175Z,231
2019-03-04T23:40:57.254Z,231
2019-03-04T23:45:57.242Z,229
2019-03-04T23:47:55.163Z,230
2019-03-04T23:48:03.188Z,230
2019-03-04T23:50:57.225Z,229
2019-03-04T23:55:57.214Z,231
